Latest Weather Observations for West Wyalong

IDN60801

Issued at 7:33 am EDT Sunday 1 March 2015 (issued every 30 minutes, with the page automatically refreshed every 10 minutes)

About weather observations | Map of weather stations | Latest weather observations for NSW | Other Formats
Station Details ID: 050017 Name: WEST WYALONG AIRPORT AWS Lat: -33.94 Lon: 147.20 Height: 257.0 m
Data from the previous 72 hours. | See also: Recent months for locations in New South Wales
Date/Time
EDT
Temp
°C
App
Temp
°C
Dew
Point
Rel
Hum
%
Delta-T
°C
Wind Press
QNH
hPa
Press
MSL
hPa
Rain
since 9 am
mm
Dir
 
Spd
km/h
Gust
km/h
Spd
kts
Gust
kts
01/07:30am 23.0 22.2 8.3 39 7.9 SW 2 9 1 5 1006.7 1005.3 0.0
01/07:00am 22.9 21.8 7.0 36 8.3 SW 2 6 1 3 1006.1 1004.7 0.0
01/06:30am 24.8 22.5 5.6 29 9.9 SW 7 9 4 5 1005.9 1004.5 0.0
01/06:00am 25.7 24.8 7.8 32 9.7 W 2 7 1 4 1005.8 1004.3 0.0
01/05:30am 27.2 23.5 9.5 33 9.9 W 19 28 10 15 1005.8 1004.3 0.0
01/05:00am 26.2 23.9 10.4 37 9.0 NNW 13 17 7 9 1004.4 1003.0 0.0
01/04:30am 26.4 24.0 10.1 36 9.2 NNW 13 17 7 9 1004.0 1002.6 0.0
01/04:00am 26.2 23.8 10.0 36 9.1 NNW 13 19 7 10 1004.2 1002.8 0.0
01/03:30am 26.3 23.8 9.6 35 9.3 NNW 13 17 7 9 1004.3 1002.9 0.0
01/03:00am 26.6 23.8 9.9 35 9.4 NNW 15 20 8 11 1004.4 1003.0 0.0
01/02:30am 25.7 23.3 9.9 37 8.9 N 13 19 7 10 1004.4 1003.0 0.0
01/02:00am 24.4 22.4 8.8 37 8.5 N 9 11 5 6 1004.9 1003.4 0.0
01/01:30am 26.1 23.7 8.6 33 9.6 N 11 15 6 8 1005.1 1003.6 0.0
01/01:00am 24.8 22.0 7.0 32 9.4 NNE 11 13 6 7 1005.3 1003.8 0.0
01/12:30am 23.3 21.7 8.2 38 8.1 NNW 6 13 3 7 1005.9 1004.5 0.0
01/12:00am 24.2 21.5 7.4 34 8.9 N 11 15 6 8 1006.1 1004.7 0.0
 
Date/Time
EDT
Temp
°C
App
Temp
°C
Dew
Point
Rel
Hum
%
Delta-T
°C
Wind Press
QNH
hPa
Press
MSL
hPa
Rain
since 9 am
mm
Dir
 
Spd
km/h
Gust
km/h
Spd
kts
Gust
kts
28/11:30pm 23.3 23.1 9.0 40 7.8 CALM 0 0 0 0 1006.5 1005.1 0.0
28/11:00pm 23.1 22.1 7.2 36 8.4 N 2 6 1 3 1006.6 1005.2 0.0
28/10:30pm 23.4 21.8 8.7 39 7.9 W 7 9 4 5 1006.6 1005.2 0.0
28/10:00pm 24.8 23.1 8.3 35 9.0 WSW 7 9 4 5 1006.4 1005.0 0.0
28/09:30pm 25.5 23.6 7.6 32 9.6 NNE 7 7 4 4 1006.2 1004.8 0.0
28/09:00pm 27.5 26.8 6.8 27 11.1 CALM 0 0 0 0 1006.0 1004.6 0.0
28/08:30pm 28.9 28.1 6.3 24 12.1 CALM 0 0 0 0 1005.6 1004.1 0.0
28/08:00pm 31.2 29.0 6.3 21 13.5 WSW 7 11 4 6 1005.3 1003.8 0.0
28/07:30pm 34.2 31.7 6.5 18 15.3 W 9 13 5 7 1005.1 1003.6 0.0
28/07:00pm 35.2 33.2 7.3 18 15.7 N 7 13 4 7 1004.8 1003.3 0.0
28/06:30pm 35.8 33.6 7.8 18 15.9 NNW 9 11 5 6 1004.8 1003.3 0.0
28/06:00pm 35.8 32.8 7.8 18 15.9 WNW 13 20 7 11 1004.8 1003.3 0.0
28/05:30pm 35.9 33.3 7.9 18 15.9 WNW 11 20 6 11 1004.8 1003.3 0.0
28/05:00pm 36.1 33.6 8.0 18 16.1 WSW 11 28 6 15 1004.9 1003.4 0.0
28/04:30pm 34.3 31.0 8.1 20 14.8 NW 15 24 8 13 1005.3 1003.8 0.0
28/04:00pm 35.7 31.8 8.5 19 15.6 NNW 19 32 10 17 1005.7 1004.2 0.0
28/03:30pm 35.3 33.2 9.7 21 14.9 NNW 11 24 6 13 1006.0 1004.6 0.0
28/03:00pm 35.6 31.8 9.9 21 15.1 NW 20 33 11 18 1006.3 1004.9 0.0
28/02:30pm 35.0 31.7 10.8 23 14.3 NW 19 28 10 15 1006.7 1005.3 0.0
28/02:00pm 33.0 28.8 9.7 24 13.5 NNW 22 35 12 19 1007.1 1005.7 0.0
28/01:30pm 33.8 30.2 9.8 23 13.9 NNW 19 33 10 18 1007.4 1006.0 0.0
28/01:00pm 34.2 31.4 11.4 25 13.6 NNW 17 30 9 16 1007.8 1006.4 0.0
28/12:30pm 33.2 29.6 10.5 25 13.3 N 20 28 11 15 1008.4 1007.0 0.0
28/12:00pm 32.7 29.1 11.8 28 12.5 N 22 32 12 17 1008.9 1007.4 0.0
28/11:30am 31.7 28.2 13.5 33 11.1 N 24 32 13 17 1009.3 1007.8 0.0
28/11:00am 30.7 28.5 14.3 36 10.1 NNW 19 28 10 15 1009.5 1008.1 0.0
28/10:30am 29.8 27.0 14.4 39 9.4 NNW 22 33 12 18 1009.6 1008.2 0.0
28/10:00am 28.8 26.3 14.2 40 8.9 N 20 26 11 14 1009.6 1008.2 0.0
28/09:30am 27.1 24.6 14.1 44 7.8 N 20 28 11 15 1009.5 1008.1 0.0
28/09:00am 27.3 25.1 15.0 47 7.5 N 20 30 11 16 1009.4 1008.0 0.0
28/08:30am 24.6 23.8 14.1 52 6.3 N 11 17 6 9 1009.4 1008.0 0.0
28/08:00am 20.7 21.1 11.1 54 5.4 CALM 0 0 0 0 1009.0 1007.5 0.0
28/07:30am 20.0 19.2 11.0 56 5.0 E 6 7 3 4 1008.5 1007.1 0.0
28/07:00am 20.1 20.5 11.1 56 5.0 CALM 0 0 0 0 1008.4 1007.0 0.0
28/06:30am 20.4 20.6 10.5 53 5.4 CALM 0 0 0 0 1008.3 1006.9 0.0
28/06:00am 20.6 20.7 10.1 51 5.7 CALM 0 0 0 0 1008.3 1006.9 0.0
28/05:30am 20.9 19.5 9.5 48 6.2 NNW 7 9 4 5 1007.9 1006.5 0.0
28/05:00am 20.0 18.9 9.9 52 5.5 NNE 6 13 3 7 1008.0 1006.6 0.0
28/04:30am 19.1 17.9 10.4 57 4.7 SW 7 9 4 5 1007.9 1006.5 0.0
28/04:00am 20.0 20.3 11.0 56 5.0 CALM 0 6 0 3 1007.8 1006.4 0.0
28/03:30am 20.5 20.6 10.0 51 5.7 CALM 0 0 0 0 1007.8 1006.4 0.0
28/03:00am 21.2 20.4 8.1 43 6.9 WSW 2 6 1 3 1008.0 1006.6 0.0
28/02:30am 22.1 20.5 7.9 40 7.5 WSW 6 6 3 3 1008.2 1006.8 0.0
28/02:00am 22.9 20.7 7.8 38 8.0 WSW 9 11 5 6 1008.4 1007.0 0.0
28/01:30am 23.4 20.7 7.5 36 8.4 WSW 11 11 6 6 1008.3 1006.9 0.0
28/01:00am 23.9 21.6 7.5 35 8.7 WSW 9 11 5 6 1008.3 1006.9 0.0
28/12:30am 24.0 21.4 7.6 35 8.7 WSW 11 13 6 7 1008.6 1007.2 0.0
28/12:00am 23.4 21.5 7.5 36 8.4 SW 7 9 4 5 1008.7 1007.3 0.0
 
Date/Time
EDT
Temp
°C
App
Temp
°C
Dew
Point
Rel
Hum
%
Delta-T
°C
Wind Press
QNH
hPa
Press
MSL
hPa
Rain
since 9 am
mm
Dir
 
Spd
km/h
Gust
km/h
Spd
kts
Gust
kts
27/11:30pm 24.1 21.8 7.3 34 8.9 WSW 9 11 5 6 1008.6 1007.2 0.0
27/11:00pm 24.6 22.3 7.3 33 9.2 SW 9 11 5 6 1008.7 1007.3 0.0
27/10:30pm 24.7 22.2 8.2 35 8.9 SW 11 13 6 7 1008.6 1007.2 0.0
27/10:00pm 23.2 21.7 10.6 45 7.1 WSW 9 11 5 6 1008.5 1007.1 0.0
27/09:30pm 23.9 22.6 9.1 39 8.1 WSW 6 9 3 5 1008.4 1007.0 0.0
27/09:00pm 24.3 22.7 7.9 35 8.8 W 6 7 3 4 1008.2 1006.8 0.0
27/08:30pm 25.8 24.9 7.9 32 9.7 SW 2 6 1 3 1007.8 1006.4 0.0
27/08:00pm 28.6 27.0 7.8 27 11.4 SSW 6 9 3 5 1007.5 1006.1 0.0
27/07:30pm 30.8 28.6 7.9 24 12.7 S 9 11 5 6 1007.2 1005.8 0.0
27/07:00pm 31.8 30.2 8.1 23 13.3 SSE 6 15 3 8 1006.9 1005.5 0.0
27/06:30pm 33.0 31.1 9.1 23 13.7 SSW 9 13 5 7 1006.8 1005.4 0.0
27/06:00pm 32.8 30.9 8.9 23 13.6 SSW 9 15 5 8 1006.8 1005.4 0.0
27/05:30pm 33.3 32.1 9.4 23 13.7 NW 6 11 3 6 1006.8 1005.4 0.0
27/05:00pm 33.3 29.8 8.7 22 14.0 W 17 28 9 15 1007.0 1005.6 0.0
27/04:30pm 32.7 29.6 8.9 23 13.5 WSW 15 20 8 11 1007.2 1005.8 0.0
27/04:00pm 32.6 31.3 10.0 25 13.1 NNW 7 11 4 6 1007.3 1005.9 0.0
27/03:30pm 32.5 30.1 9.9 25 13.0 WSW 13 20 7 11 1007.6 1006.2 0.0
27/03:00pm 31.7 29.2 9.8 26 12.6 WSW 13 20 7 11 1008.1 1006.7 0.0
27/02:30pm 31.6 30.0 10.3 27 12.3 W 9 15 5 8 1008.6 1007.2 0.0
27/02:00pm 31.4 29.6 9.6 26 12.5 W 9 17 5 9 1009.0 1007.5 0.0
27/01:30pm 30.7 28.7 10.1 28 11.8 SSW 11 20 6 11 1009.3 1007.8 0.0
27/01:00pm 30.1 28.3 9.6 28 11.7 SW 9 24 5 13 1009.8 1008.4 0.0
27/12:30pm 29.6 28.1 10.7 31 10.9 W 9 17 5 9 1010.2 1008.8 0.0
27/12:00pm 30.0 28.2 11.0 31 11.0 SE 11 17 6 9 1010.5 1009.1 0.0
27/11:30am 28.3 27.7 12.2 37 9.5 WNW 7 11 4 6 1010.5 1009.1 0.0
27/11:00am 27.7 28.0 13.3 41 8.6 NNE 4 9 2 5 1011.0 1009.6 0.0
27/10:30am 26.4 25.8 13.5 45 7.7 NNE 9 15 5 8 1010.9 1009.5 0.0
27/10:00am 24.8 24.3 13.7 50 6.6 NE 9 11 5 6 1010.9 1009.5 0.0
27/09:30am 23.5 22.7 13.9 55 5.7 ENE 11 15 6 8 1010.7 1009.3 0.0
27/09:00am 22.1 21.7 14.0 60 4.8 ENE 9 13 5 7 1010.6 1009.2 0.0
27/08:30am 20.8 19.9 13.7 64 4.1 ESE 11 15 6 8 1010.5 1009.1 0.0
27/08:00am 19.1 18.5 13.5 70 3.2 E 9 13 5 7 1010.1 1008.7 0.0
27/07:30am 17.4 17.1 13.3 77 2.3 ESE 7 9 4 5 1009.8 1008.4 0.0
27/07:00am 16.2 15.7 12.6 79 2.0 ESE 7 9 4 5 1009.5 1008.1 0.0
27/06:30am 16.7 15.9 12.8 78 2.2 SE 9 9 5 5 1009.1 1007.6 0.0
27/06:00am 17.1 16.6 12.8 76 2.4 SE 7 11 4 6 1008.9 1007.4 0.0
27/05:30am 17.4 16.9 12.5 73 2.7 SSE 7 9 4 5 1008.9 1007.4 0.0
27/05:00am 17.5 16.9 12.2 71 3.0 SE 7 9 4 5 1008.6 1007.2 0.0
27/04:30am 18.0 17.0 12.2 69 3.2 SSE 9 11 5 6 1008.7 1007.3 0.0
27/04:00am 18.2 17.5 12.0 67 3.5 SSW 7 9 4 5 1008.9 1007.4 0.0
27/03:30am 18.0 17.3 12.0 68 3.3 S 7 9 4 5 1008.7 1007.3 0.0
27/03:00am 17.8 17.1 11.4 66 3.5 SW 6 7 3 4 1008.6 1007.2 0.0
27/02:30am 17.8 18.0 10.7 63 3.9 CALM 0 0 0 0 1008.7 1007.3 0.0
27/02:00am 19.0 18.2 11.1 60 4.4 SW 6 7 3 4 1009.1 1007.6 0.0
27/01:30am 19.8 19.5 11.3 58 4.7 SW 4 7 2 4 1009.2 1007.7 0.0
27/01:00am 19.7 20.0 10.9 57 4.9 CALM 0 0 0 0 1009.3 1007.8 0.0
27/12:30am 19.9 19.9 11.1 57 4.9 S 2 7 1 4 1009.3 1007.8 0.0
27/12:00am 19.9 19.1 11.7 59 4.6 SSW 7 11 4 6 1009.3 1007.8 0.0
 
Date/Time
EDT
Temp
°C
App
Temp
°C
Dew
Point
Rel
Hum
%
Delta-T
°C
Wind Press
QNH
hPa
Press
MSL
hPa
Rain
since 9 am
mm
Dir
 
Spd
km/h
Gust
km/h
Spd
kts
Gust
kts
26/11:30pm 20.4 19.3 10.5 53 5.4 SW 7 9 4 5 1009.3 1007.8 0.0
26/11:00pm 20.5 19.3 9.4 49 6.0 SW 6 7 3 4 1009.4 1008.0 0.0
26/10:30pm 22.5 22.4 9.6 44 7.1 CALM 0 0 0 0 1009.3 1007.8 0.0
26/10:00pm 23.5 21.7 9.5 41 7.7 S 9 11 5 6 1009.1 1007.6 0.0
26/09:30pm 23.2 21.5 9.9 43 7.3 SSW 9 15 5 8 1008.7 1007.3 0.0
26/09:00pm 24.8 22.5 9.1 37 8.6 SSW 11 13 6 7 1008.3 1006.9 0.0
26/08:30pm 25.4 23.2 8.0 33 9.4 SSW 9 11 5 6 1007.6 1006.2 0.0
26/08:00pm 27.4 24.4 7.8 29 10.7 SSW 13 17 7 9 1007.2 1005.8 0.0
26/07:30pm 28.9 25.6 8.0 27 11.5 SSW 15 24 8 13 1006.7 1005.3 0.0
26/07:00pm 29.8 25.2 6.5 23 12.6 SSW 20 28 11 15 1006.5 1005.1 0.0
26/06:30pm 30.7 25.7 6.6 22 13.1 SSW 22 28 12 15 1006.3 1004.9 0.0
26/06:00pm 31.2 28.1 8.8 25 12.7 SSW 15 22 8 12 1006.1 1004.7 0.0
26/05:30pm 31.3 27.0 7.7 23 13.1 SSW 20 28 11 15 1006.2 1004.8 0.0
26/05:00pm 31.0 27.6 9.3 26 12.4 SW 17 32 9 17 1006.4 1005.0 0.0
26/04:30pm 31.7 27.6 8.0 23 13.2 SW 19 26 10 14 1006.6 1005.2 0.0
26/04:00pm 30.9 27.2 8.0 24 12.8 S 17 26 9 14 1006.6 1005.2 0.0
26/03:30pm 30.8 27.3 10.2 28 11.9 WSW 19 28 10 15 1006.9 1005.5 0.0
26/03:00pm 30.1 27.7 8.5 26 12.1 SW 11 17 6 9 1007.2 1005.8 0.0
26/02:30pm 29.1 26.6 9.8 30 10.9 WSW 13 22 7 12 1007.5 1006.1 0.0
26/02:00pm 29.8 28.3 11.8 33 10.6 SSW 11 28 6 15 1008.1 1006.7 0.0
26/01:30pm 29.5 27.0 11.1 32 10.7 SW 15 24 8 13 1008.5 1007.1 0.0
26/01:00pm 28.8 26.6 12.2 35 9.8 WSW 15 24 8 13 1008.9 1007.4 0.0
26/12:30pm 27.1 27.0 13.8 44 8.0 NNW 7 15 4 8 1009.4 1008.0 0.0
26/12:00pm 26.3 25.9 14.1 47 7.3 NNW 9 15 5 8 1009.3 1007.8 0.0
26/11:30am 26.7 26.7 15.1 49 7.1 NW 9 19 5 10 1009.9 1008.5 0.0
26/11:00am 24.8 23.9 14.9 54 6.0 N 13 20 7 11 1010.0 1008.6 0.0
26/10:30am 24.6 23.9 15.5 57 5.6 NNE 13 20 7 11 1010.2 1008.8 0.0
26/10:00am 22.5 22.6 15.4 64 4.3 NNE 9 15 5 8 1010.4 1009.0 0.0
26/09:30am 22.0 21.5 14.9 64 4.2 NE 11 17 6 9 1010.2 1008.8 0.0
26/09:00am 21.0 20.7 15.5 71 3.3 NE 11 15 6 8 1010.1 1008.7 0.0
26/08:30am 19.8 20.2 15.2 75 2.7 E 7 9 4 5 1009.9 1008.5 0.0
26/08:00am 18.1 17.9 14.8 81 1.9 E 9 13 5 7 1009.6 1008.2 0.0

Other Formats:

Comma delimited format used in spreadsheet applications
http://www.bom.gov.au/fwo/IDN60801/IDN60801.95709.axf

JavaScript Object Notation format (JSON) in row-major order
http://www.bom.gov.au/fwo/IDN60801/IDN60801.95709.json